Arctic Village, AK

8:54 AM AKST on December 20, 2014 (GMT -0900)
Arctic Village | Change Station
CLOSE
Current Station
Airport
Location: Arctic Village,
Elevation: 2090 ft
Nearby Weather Stations

Elev 2090 ft 68.11 °N, 145.58 °W | Updated 18 minutes ago

Clear
Clear
-6 °F
Feels Like -17 °F
N
5
Wind Variable Wind from East

Today
High -- | Low -- °F
--% Chance of Precip.
Yesterday
High -- | Low -- °F
Precip. -- in
12:07 PM 1:12 PM
Waning Crescent, 2% visible
Pressure 29.26 in
Visibility 10.0 miles
Clouds Clear
Windchill -17 °F
Dew Point -27 °F
Humidity 35%
Rainfall 0.00 in
Snow Depth Not available.
UV 0 out of 12
Pollen Not available.
Air Quality Not available.
Flu Activity Not available.
METAR PARC 201736Z AUTO 09004KT 10SM CLR M21/M33 A2926 RMK AO1

More Conditions Fewer Conditions

Pressure 29.26 in
Visibility 10.0 miles
Clouds Clear
Windchill -17 °F
Dew Point -27 °F
Humidity 35%
Rainfall 0.00 in
Snow Depth Not available.
UV 0 out of 12
Pollen Not available.
Air Quality Not available.
Flu Activity Not available.
METAR PARC 201736Z AUTO 09004KT 10SM CLR M21/M33 A2926 RMK AO1

More Conditions Fewer Conditions

10-Day Weather Forecast

Almanac

Astronomy

Dec. 20, 2014 Rise Set
Actual Time
Civil Twilight
Nautical Twilight
Astronomical Twilight
Moon
Length of Visible Light
Length of Day
Tomorrow will be .
, % of the Moon is Illuminated

Today's Extremes

State Highs State Lows

Community

WunderPhotos

Upload Photos

1,779,228 photos uploaded!

WunderBlogs® & News

Nearby

Air Quality

  Air Quality AQ Index Pollutant
Not available.

Snow Depth

Station Depth Elevation

Earthquake Activity

City Distance Mag. Time & Date
Minimum magnitude displayed is 2.5.

Coastal Water Temperatures

Place Temperature

Nearby Weather Stations